Time;durP1;ratioP1;P1;durP2;ratioP2;P2;SDS_P1;SDS_P2;PMS_P1;PMS_P2;Temp;Humidity;BMP_temperature;BMP_pressure;BME280_temperature;BME280_humidity;BME280_pressure;Samples;Min_cycle;Max_cycle;Signal;HPM_P1;HPM_P2
2021/12/09 00:02:20;;;;;;;23.95;18.40;;;;;;;6.21;81.58;98855.63;10277474;28;20047;-60
2021/12/09 00:07:21;;;;;;;23.85;16.70;;;;;;;6.24;82.15;98865.91;10268640;28;20134;-60
2021/12/09 00:12:24;;;;;;;27.10;19.15;;;;;;;6.29;81.54;98858.47;10268582;28;20047;-61
2021/12/09 00:17:25;;;;;;;20.17;16.90;;;;;;;6.35;81.86;98867.66;10268072;28;20066;-61
2021/12/09 00:22:27;;;;;;;21.55;16.92;;;;;;;6.26;81.40;98849.94;10268144;28;20054;-60
2021/12/09 00:27:28;;;;;;;22.98;17.33;;;;;;;6.21;81.79;98860.06;10268812;28;20057;-60
2021/12/09 00:32:30;;;;;;;23.83;18.33;;;;;;;6.29;82.00;98873.47;10246166;28;20046;-61
2021/12/09 00:42:36;;;;;;;21.10;16.52;;;;;;;6.50;81.28;98886.66;10267507;28;20129;-61
2021/12/09 00:47:37;;;;;;;17.73;15.13;;;;;;;6.48;80.80;98878.03;10272174;28;20062;-60
2021/12/09 00:52:39;;;;;;;21.00;16.90;;;;;;;6.49;81.25;98885.00;10274050;28;20133;-61
2021/12/09 00:57:41;;;;;;;23.70;17.70;;;;;;;6.45;81.01;98886.22;10274845;28;20133;-61
2021/12/09 01:02:43;;;;;;;20.52;15.80;;;;;;;6.46;81.26;98887.91;10256680;28;20038;-60
2021/12/09 01:07:45;;;;;;;23.30;17.17;;;;;;;6.41;81.10;98883.00;10274279;28;20725;-61
2021/12/09 01:12:47;;;;;;;21.60;16.58;;;;;;;6.32;81.21;98881.13;10275311;28;21497;-61
2021/12/09 01:17:50;;;;;;;20.98;15.65;;;;;;;6.40;81.40;98891.06;10275031;28;20146;-60
2021/12/09 01:22:53;;;;;;;19.52;16.10;;;;;;;6.31;81.35;98875.00;10274797;28;20042;-61
2021/12/09 01:27:57;;;;;;;22.13;16.88;;;;;;;6.38;81.65;98896.50;10273180;28;20133;-61
2021/12/09 01:32:59;;;;;;;24.52;17.05;;;;;;;6.40;81.58;98896.34;10274967;28;20134;-61
2021/12/09 01:38:10;;;;;;;22.65;17.92;;;;;;;6.33;81.33;98891.56;10272955;28;20070;-61
2021/12/09 01:43:12;;;;;;;23.92;16.75;;;;;;;6.39;81.19;98899.97;10272277;28;20576;-62
2021/12/09 01:48:13;;;;;;;21.67;16.98;;;;;;;6.50;80.72;98910.44;10273562;28;20051;-61
2021/12/09 01:53:15;;;;;;;24.33;17.08;;;;;;;6.41;80.48;98898.88;10272587;28;20075;-61
2021/12/09 01:58:16;;;;;;;17.73;15.30;;;;;;;6.29;80.42;98900.75;10273035;28;20495;-61
2021/12/09 02:03:18;;;;;;;18.80;14.38;;;;;;;6.34;80.17;98895.06;10274144;28;20127;-61
2021/12/09 02:08:20;;;;;;;16.98;13.35;;;;;;;6.26;80.00;98901.00;10260989;28;20495;-61
2021/12/09 02:13:21;;;;;;;16.35;14.02;;;;;;;6.24;79.59;98905.56;10277954;23;20339;-65
2021/12/09 02:18:24;;;;;;;16.95;12.23;;;;;;;6.19;80.03;98890.09;10303738;28;20083;-67
2021/12/09 02:23:25;;;;;;;13.82;11.95;;;;;;;6.00;80.22;98890.81;10309872;28;20155;-65
2021/12/09 02:28:27;;;;;;;23.67;16.08;;;;;;;5.89;80.61;98890.81;10309176;28;20050;-65
2021/12/09 02:33:29;;;;;;;25.60;16.77;;;;;;;5.87;81.30;98908.63;10309700;28;20076;-65
2021/12/09 02:38:30;;;;;;;22.48;16.98;;;;;;;5.80;81.29;98910.06;10308718;28;20527;-65
2021/12/09 02:43:32;;;;;;;24.52;17.15;;;;;;;5.79;81.73;98909.22;10292176;28;20571;-67
2021/12/09 02:48:34;;;;;;;22.38;16.25;;;;;;;5.72;81.52;98907.22;10308606;28;20081;-66
2021/12/09 02:53:37;;;;;;;23.92;16.52;;;;;;;5.71;81.93;98916.94;10308509;28;20137;-66
2021/12/09 02:58:39;;;;;;;21.15;15.98;;;;;;;5.65;81.35;98907.72;10308045;28;20626;-66
2021/12/09 03:03:50;;;;;;;19.30;14.38;;;;;;;5.66;81.14;98909.41;10309089;28;20063;-66
2021/12/09 03:08:51;;;;;;;22.90;17.60;;;;;;;5.46;81.83;98920.72;10281356;28;20042;-65
2021/12/09 03:13:53;;;;;;;26.42;17.23;;;;;;;5.40;82.29;98929.13;10293901;28;20068;-65
2021/12/09 03:18:57;;;;;;;24.25;16.38;;;;;;;5.47;82.10;98925.06;10308161;28;20125;-65
2021/12/09 03:24:01;;;;;;;24.75;17.63;;;;;;;5.52;81.44;98929.97;10307736;28;20137;-66
2021/12/09 03:29:05;;;;;;;19.95;15.10;;;;;;;5.50;81.59;98940.63;10306705;28;20137;-66
2021/12/09 03:34:07;;;;;;;21.13;16.23;;;;;;;5.41;81.18;98942.22;10306623;28;20570;-66
2021/12/09 03:39:18;;;;;;;22.05;15.25;;;;;;;5.35;81.32;98957.72;10288105;28;20050;-65
2021/12/09 03:44:20;;;;;;;22.70;14.77;;;;;;;5.32;81.46;98969.34;10307266;28;20054;-65
2021/12/09 03:49:23;;;;;;;18.60;14.13;;;;;;;5.30;81.00;98982.66;10306335;28;20120;-66
2021/12/09 03:54:26;;;;;;;15.93;12.65;;;;;;;5.21;80.75;98988.66;10306955;28;20453;-65
2021/12/09 03:59:27;;;;;;;19.38;12.98;;;;;;;5.12;80.93;99005.22;10308069;28;20057;-66
2021/12/09 04:04:29;;;;;;;18.90;13.13;;;;;;;5.13;80.76;99007.72;10306590;28;20126;-66
2021/12/09 04:09:30;;;;;;;13.63;11.98;;;;;;;5.32;79.91;98995.72;10308640;28;20129;-66
2021/12/09 04:14:32;;;;;;;17.95;12.40;;;;;;;5.34;79.42;98988.50;10311903;28;20129;-66
2021/12/09 04:19:33;;;;;;;15.32;11.38;;;;;;;5.27;79.58;98982.91;10309405;28;20133;-67
2021/12/09 04:24:35;;;;;;;17.90;12.43;;;;;;;5.35;79.79;98999.94;10316436;28;20466;-66
2021/12/09 04:29:36;;;;;;;15.32;12.60;;;;;;;5.40;78.77;98995.13;10313486;28;20109;-65
2021/12/09 04:34:37;;;;;;;16.13;11.63;;;;;;;5.49;78.55;99003.16;10314134;28;20058;-65
2021/12/09 04:39:40;;;;;;;16.83;11.25;;;;;;;5.41;78.03;98992.34;10311961;28;20694;-66
2021/12/09 04:44:41;;;;;;;11.55;10.18;;;;;;;5.34;78.43;98983.25;10314497;28;20463;-65
2021/12/09 04:49:42;;;;;;;13.57;10.32;;;;;;;5.46;78.07;98992.00;10314479;28;20048;-65
2021/12/09 04:54:44;;;;;;;11.93;9.60;;;;;;;5.50;77.84;98993.44;10296702;28;20060;-66
2021/12/09 04:59:47;;;;;;;11.38;9.77;;;;;;;5.39;77.44;98986.38;10343055;28;20145;-66
2021/12/09 05:04:49;;;;;;;12.38;10.07;;;;;;;5.29;76.99;98991.53;10296444;28;20177;-66
2021/12/09 05:09:51;;;;;;;15.43;9.48;;;;;;;5.24;77.97;98993.69;10313299;28;20552;-66
2021/12/09 05:14:53;;;;;;;13.75;10.15;;;;;;;5.36;77.84;98991.03;10314961;28;20499;-66
2021/12/09 05:19:54;;;;;;;11.32;8.98;;;;;;;5.40;77.84;99003.88;10312386;28;20081;-66
2021/12/09 05:24:56;;;;;;;15.30;9.00;;;;;;;5.47;76.91;99005.06;10311738;28;20129;-66
2021/12/09 05:30:06;;;;;;;12.30;9.02;;;;;;;5.32;77.44;99009.75;10311831;28;20129;-66
2021/12/09 05:35:08;;;;;;;14.23;9.25;;;;;;;5.26;76.88;99022.59;10309935;28;20165;-66
2021/12/09 05:40:10;;;;;;;13.63;8.65;;;;;;;5.09;76.89;99000.19;10294224;28;20137;-65
2021/12/09 05:45:12;;;;;;;11.40;8.55;;;;;;;5.05;76.84;99022.47;10311364;28;20065;-66
2021/12/09 05:50:13;;;;;;;15.18;10.00;;;;;;;4.99;77.37;99036.13;10311624;28;20114;-66
2021/12/09 05:55:15;;;;;;;12.48;8.43;;;;;;;4.83;77.59;99034.63;10311049;28;20082;-65
2021/12/09 06:00:18;;;;;;;11.52;8.13;;;;;;;4.76;77.83;99036.91;10291885;28;20115;-65
2021/12/09 06:05:20;;;;;;;11.07;8.13;;;;;;;4.53;78.58;99037.81;10283160;28;20071;-66
2021/12/09 06:10:21;;;;;;;11.02;7.18;;;;;;;4.47;78.95;99041.72;10288601;28;20066;-65
2021/12/09 06:15:22;;;;;;;12.23;7.90;;;;;;;4.38;79.31;99034.50;10284971;28;20054;-66
2021/12/09 06:20:25;;;;;;;12.18;8.60;;;;;;;4.30;78.92;99031.63;10285862;28;20046;-66
2021/12/09 06:25:26;;;;;;;11.18;7.80;;;;;;;4.19;79.43;99043.78;10288490;28;20573;-65
2021/12/09 06:30:28;;;;;;;12.80;7.82;;;;;;;4.23;79.91;99045.25;10286063;28;20053;-64
2021/12/09 06:35:29;;;;;;;11.95;7.72;;;;;;;4.19;79.59;99049.06;10281035;28;20048;-65
2021/12/09 06:40:31;;;;;;;9.05;7.75;;;;;;;4.24;79.40;99046.91;10286175;28;20443;-66
2021/12/09 06:45:33;;;;;;;11.10;8.45;;;;;;;4.30;79.04;99055.34;10286375;28;20120;-66
2021/12/09 06:50:35;;;;;;;9.93;7.82;;;;;;;4.31;78.93;99073.66;10287140;28;20046;-66
2021/12/09 06:55:38;;;;;;;10.30;7.15;;;;;;;4.29;78.99;99087.88;10290795;28;20169;-65
2021/12/09 07:00:46;;;;;;;9.98;7.70;;;;;;;4.19;79.13;99069.28;10290964;28;20798;-66
2021/12/09 07:05:49;;;;;;;13.02;8.73;;;;;;;4.01;79.50;99071.47;10287721;28;20050;-65
2021/12/09 07:10:51;;;;;;;12.27;7.20;;;;;;;4.06;79.35;99085.97;10291381;28;20200;-66
2021/12/09 07:15:53;;;;;;;13.23;7.53;;;;;;;3.99;79.99;99095.25;10289669;28;20134;-66
2021/12/09 07:20:55;;;;;;;11.80;7.57;;;;;;;4.08;79.31;99093.75;10274591;28;20049;-69
2021/12/09 07:25:57;;;;;;;10.18;8.18;;;;;;;4.12;79.34;99108.41;10284110;28;20437;-64
2021/12/09 07:30:58;;;;;;;13.98;8.75;;;;;;;3.95;80.13;99108.75;10274716;28;20144;-63
2021/12/09 07:36:00;;;;;;;11.30;8.50;;;;;;;3.77;80.52;99117.03;10287507;28;21002;-66
2021/12/09 07:41:02;;;;;;;10.15;6.90;;;;;;;3.52;81.42;99123.97;10276263;28;20047;-65
2021/12/09 07:46:04;;;;;;;9.30;6.88;;;;;;;3.58;81.53;99129.78;10289484;28;20077;-63
2021/12/09 07:51:05;;;;;;;10.25;7.55;;;;;;;3.58;81.20;99142.94;10288099;28;20077;-63
2021/12/09 07:56:06;;;;;;;12.60;7.57;;;;;;;3.60;81.19;99138.41;10292074;28;20064;-64
2021/12/09 08:01:09;;;;;;;11.02;7.88;;;;;;;3.66;81.16;99143.25;10296070;28;20049;-65
2021/12/09 08:06:13;;;;;;;9.38;6.40;;;;;;;3.71;81.61;99146.41;10294957;28;20720;-64
2021/12/09 08:11:14;;;;;;;11.82;6.57;;;;;;;3.78;81.15;99146.81;10296046;28;20251;-65
2021/12/09 08:16:16;;;;;;;9.35;7.00;;;;;;;3.96;80.29;99148.13;10294097;28;20073;-66
2021/12/09 08:21:18;;;;;;;11.68;6.28;;;;;;;4.12;79.45;99147.06;10280516;28;20053;-66
2021/12/09 08:26:21;;;;;;;11.13;7.60;;;;;;;4.16;79.18;99138.84;10283075;28;20046;-66
2021/12/09 08:31:23;;;;;;;9.95;6.65;;;;;;;4.23;78.88;99136.59;10282716;28;20057;-66
2021/12/09 08:36:24;;;;;;;8.80;7.07;;;;;;;4.48;77.92;99135.66;10294953;28;20046;-66
2021/12/09 08:41:26;;;;;;;10.43;6.45;;;;;;;4.55;77.14;99134.25;10282048;28;20061;-66
2021/12/09 08:46:27;;;;;;;8.68;6.45;;;;;;;4.67;76.74;99136.94;10284129;28;20053;-66
2021/12/09 08:51:29;;;;;;;11.20;6.38;;;;;;;4.66;76.37;99148.44;10295300;28;20050;-66
2021/12/09 08:56:30;;;;;;;13.60;7.85;;;;;;;4.27;77.06;99155.66;10285362;28;20054;-66
2021/12/09 09:01:33;;;;;;;12.20;7.15;;;;;;;4.40;77.44;99167.84;10294909;28;20050;-66
2021/12/09 09:06:36;;;;;;;10.40;7.20;;;;;;;4.39;76.78;99178.50;10289144;28;20042;-66
2021/12/09 09:11:37;;;;;;;8.82;6.50;;;;;;;4.09;77.55;99174.47;10294306;28;20193;-65
2021/12/09 09:16:38;;;;;;;11.18;7.63;;;;;;;4.10;77.66;99176.16;10293154;28;20056;-64
2021/12/09 09:21:42;;;;;;;9.00;7.05;;;;;;;3.84;77.87;99185.88;10292199;28;20053;-64
2021/12/09 09:26:44;;;;;;;9.95;7.28;;;;;;;3.83;78.67;99185.03;10286058;28;20408;-65
2021/12/09 09:31:45;;;;;;;8.50;6.97;;;;;;;3.87;78.34;99181.25;10295319;28;20064;-64
2021/12/09 09:36:47;;;;;;;11.65;7.75;;;;;;;3.88;78.39;99171.53;10280223;28;20050;-65
2021/12/09 09:41:58;;;;;;;10.77;7.63;;;;;;;4.04;77.27;99181.84;10292137;28;20066;-65
2021/12/09 09:47:02;;;;;;;9.02;7.38;;;;;;;4.10;77.31;99178.78;10292257;28;20051;-65
2021/12/09 09:52:05;;;;;;;8.95;6.95;;;;;;;4.25;76.45;99167.16;10291311;28;20065;-67
2021/12/09 09:57:08;;;;;;;8.90;7.50;;;;;;;4.64;75.72;99163.53;10291766;28;20062;-65
2021/12/09 10:02:13;;;;;;;13.45;7.22;;;;;;;4.66;74.29;99177.44;10278760;28;20523;-65
2021/12/09 10:07:17;;;;;;;;;;;;;;;4.50;75.19;99189.09;10278235;28;20049;-66
2021/12/09 10:12:18;;;;;;;9.38;6.72;;;;;;;4.50;75.50;99186.44;10291134;28;19930;-65
2021/12/09 10:17:26;;;;;;;11.13;6.35;;;;;;;4.72;74.50;99185.72;10290026;28;20053;-64
2021/12/09 10:22:42;;;;;;;9.40;7.32;;;;;;;5.06;73.26;99177.13;10282855;28;20042;-65
2021/12/09 10:27:45;;;;;;;10.57;7.45;;;;;;;4.95;73.07;99170.00;10291014;28;20401;-65
2021/12/09 10:32:48;;;;;;;9.35;6.05;;;;;;;5.29;72.44;99181.50;10284574;28;20112;-65
2021/12/09 10:37:51;;;;;;;9.10;6.43;;;;;;;5.76;70.90;99167.44;10289918;28;20057;-64
2021/12/09 10:42:56;;;;;;;9.90;7.20;;;;;;;5.28;71.46;99173.72;10278231;28;20878;-65
2021/12/09 10:48:16;;;;;;;9.30;5.88;;;;;;;5.26;72.17;99176.47;10292286;28;20050;-63
2021/12/09 10:58:31;;;;;;;10.07;5.18;;;;;;;5.32;71.87;99170.72;10292708;28;20406;-63
2021/12/09 11:03:41;;;;;;;7.85;5.70;;;;;;;5.40;71.92;99171.94;10290161;28;20089;-62
2021/12/09 11:08:50;;;;;;;6.03;4.80;;;;;;;5.44;70.98;99168.94;10287304;28;20058;-62
2021/12/09 11:14:03;;;;;;;8.65;4.88;;;;;;;5.34;70.97;99175.88;10289006;28;20050;-63
2021/12/09 11:19:08;;;;;;;8.48;3.92;;;;;;;5.44;70.50;99183.94;10286488;28;20144;-62
2021/12/09 11:24:17;;;;;;;4.82;3.40;;;;;;;5.22;71.02;99185.56;10288147;28;20149;-63
2021/12/09 11:29:30;;;;;;;6.65;3.95;;;;;;;5.09;71.52;99179.56;10276413;28;20066;-64
2021/12/09 11:34:38;;;;;;;9.65;4.53;;;;;;;5.20;70.50;99176.94;10282309;28;20054;-66
2021/12/09 11:39:39;;;;;;;6.15;3.75;;;;;;;5.38;70.79;99179.16;10287411;28;20058;-66
2021/12/09 11:44:44;;;;;;;7.85;4.35;;;;;;;5.45;69.55;99180.34;10286996;28;20053;-66
2021/12/09 11:49:47;;;;;;;7.20;4.37;;;;;;;5.37;69.40;99177.44;10287045;28;20062;-65
2021/12/09 11:55:01;;;;;;;7.50;3.85;;;;;;;5.65;69.04;99182.28;10287873;28;20058;-65
2021/12/09 12:11:33;;;;;;;6.95;3.90;;;;;;;5.96;66.72;99177.28;10284794;28;20497;-64
2021/12/09 12:22:25;;;;;;;7.72;4.07;;;;;;;5.59;69.01;99176.66;10288322;28;20044;-64
2021/12/09 12:27:26;;;;;;;8.45;4.63;;;;;;;5.28;70.65;99179.84;10273035;28;20051;-63
2021/12/09 12:33:46;;;;;;;9.50;4.32;;;;;;;5.17;70.82;99160.50;10287708;28;20491;-64
2021/12/09 12:43:46;;;;;;;7.88;5.25;;;;;;;5.24;71.47;99175.75;10290346;28;20074;-64
2021/12/09 12:54:21;;;;;;;8.85;4.15;;;;;;;5.15;70.61;99157.97;10293595;28;21147;-63
2021/12/09 12:59:37;;;;;;;8.85;4.13;;;;;;;5.11;70.74;99152.06;10296302;28;20691;-63
2021/12/09 13:05:17;;;;;;;5.70;3.55;;;;;;;5.26;70.17;99139.53;10293815;28;20057;-63
2021/12/09 13:10:20;;;;;;;4.63;3.47;;;;;;;5.08;69.68;99140.94;10291495;28;20057;-65
2021/12/09 13:15:30;;;;;;;6.97;3.38;;;;;;;6.46;64.99;99137.22;10296894;28;20061;-65
2021/12/09 13:20:38;;;;;;;6.50;2.75;;;;;;;5.94;65.95;99144.84;10281923;28;20046;-65
2021/12/09 13:26:20;;;;;;;5.60;3.08;;;;;;;6.08;66.44;99140.31;10292540;28;20054;-64
2021/12/09 13:31:51;;;;;;;6.22;3.45;;;;;;;5.84;67.23;99144.75;10293310;28;20050;-67
2021/12/09 13:37:29;;;;;;;10.43;3.85;;;;;;;5.59;67.83;99129.13;10298989;28;20052;-64
2021/12/09 13:47:50;;;;;;;5.75;4.00;;;;;;;5.26;69.27;99149.25;10291440;28;20050;-65
2021/12/09 13:57:59;;;;;;;8.90;3.45;;;;;;;5.35;69.67;99139.78;10292710;28;20220;-65
2021/12/09 14:03:09;;;;;;;10.65;4.93;;;;;;;5.18;70.19;99136.66;10294217;28;20054;-63
2021/12/09 14:08:13;;;;;;;6.30;3.33;;;;;;;5.10;70.46;99144.28;10291627;28;20058;-63
2021/12/09 14:13:20;;;;;;;7.68;3.63;;;;;;;5.12;70.42;99142.38;10290241;28;20047;-63
2021/12/09 14:18:25;;;;;;;7.97;4.10;;;;;;;5.16;70.38;99151.72;10293017;28;20549;-64
2021/12/09 14:23:26;;;;;;;10.15;4.20;;;;;;;4.99;70.42;99149.53;10292653;28;20193;-63
2021/12/09 14:28:33;;;;;;;10.52;5.22;;;;;;;5.08;70.59;99141.75;10282156;28;20058;-62
2021/12/09 14:33:34;;;;;;;10.55;5.32;;;;;;;5.25;70.02;99137.84;10277436;28;20048;-61
2021/12/09 14:38:38;;;;;;;7.85;4.65;;;;;;;5.17;70.08;99148.13;10290249;28;20581;-62
2021/12/09 14:43:40;;;;;;;13.32;8.98;;;;;;;5.18;70.24;99147.19;10278644;28;20056;-62
2021/12/09 14:48:45;;;;;;;11.63;5.80;;;;;;;5.26;69.99;99152.72;10275466;28;20055;-63
2021/12/09 14:53:54;;;;;;;11.60;6.35;;;;;;;5.25;70.44;99158.94;10288889;28;20086;-63
2021/12/09 14:59:18;;;;;;;12.98;6.45;;;;;;;5.22;70.32;99167.09;10289778;28;20546;-64
2021/12/09 15:04:33;;;;;;;9.10;5.47;;;;;;;5.34;70.56;99161.84;10286080;28;20054;-63
2021/12/09 15:09:34;;;;;;;10.38;7.13;;;;;;;5.31;70.14;99153.22;10286265;28;20129;-62
2021/12/09 15:14:41;;;;;;;12.05;6.05;;;;;;;5.45;69.88;99159.22;10289862;28;20462;-64
2021/12/09 15:19:58;;;;;;;9.30;6.90;;;;;;;5.44;70.36;99160.19;10282221;28;20061;-63
2021/12/09 15:25:02;;;;;;;11.75;6.35;;;;;;;5.45;71.30;99157.44;10290552;28;20145;-64
2021/12/09 15:30:04;;;;;;;10.97;6.60;;;;;;;5.31;72.77;99161.16;10288293;28;20054;-65
2021/12/09 15:35:15;;;;;;;10.27;7.40;;;;;;;5.27;74.14;99149.13;10286805;28;20050;-65
2021/12/09 15:40:19;;;;;;;12.75;8.18;;;;;;;5.24;74.64;99159.91;10292729;28;20047;-64
2021/12/09 15:45:22;;;;;;;15.47;8.27;;;;;;;5.21;75.78;99161.94;10275072;28;20121;-64
2021/12/09 15:50:29;;;;;;;14.15;7.93;;;;;;;5.35;75.52;99163.53;10273661;28;20113;-64
2021/12/09 15:55:37;;;;;;;14.00;7.90;;;;;;;5.42;75.51;99160.31;10282924;28;20076;-64
2021/12/09 16:00:40;;;;;;;10.38;7.80;;;;;;;5.39;75.55;99159.69;10274808;28;21918;-64
2021/12/09 16:05:42;;;;;;;14.70;7.93;;;;;;;5.39;74.91;99154.41;10285963;28;20109;-65
2021/12/09 16:10:45;;;;;;;12.15;7.97;;;;;;;5.44;74.77;99168.94;10279037;28;20531;-65
2021/12/09 16:16:02;;;;;;;12.00;6.93;;;;;;;5.38;74.70;99176.50;10289275;28;20046;-63
2021/12/09 16:21:07;;;;;;;9.75;7.32;;;;;;;5.41;74.68;99174.47;10296450;28;20057;-64
2021/12/09 16:26:09;;;;;;;12.73;7.63;;;;;;;5.38;75.31;99174.69;10282904;28;20050;-64
2021/12/09 16:31:11;;;;;;;14.90;10.80;;;;;;;5.39;75.57;99170.25;10297506;28;20133;-65
2021/12/09 16:36:12;;;;;;;14.93;8.85;;;;;;;5.34;76.29;99167.97;10295857;28;20068;-64
2021/12/09 16:41:14;;;;;;;17.42;12.48;;;;;;;5.35;77.42;99174.09;10294427;28;20058;-64
2021/12/09 16:46:16;;;;;;;12.15;7.93;;;;;;;5.44;76.91;99173.41;10284664;28;20050;-64
2021/12/09 16:51:19;;;;;;;12.48;6.97;;;;;;;5.41;76.86;99171.00;10293551;28;20054;-64
2021/12/09 17:01:36;;;;;;;13.33;6.77;;;;;;;5.48;77.07;99180.13;10291456;28;20046;-65
2021/12/09 17:06:38;;;;;;;17.17;9.48;;;;;;;5.46;77.05;99177.59;10281720;28;20058;-64
2021/12/09 17:11:43;;;;;;;11.75;6.60;;;;;;;5.49;76.85;99176.50;10291727;28;20073;-64
2021/12/09 17:16:46;;;;;;;8.45;5.78;;;;;;;5.50;77.62;99188.75;10294793;28;20526;-64
2021/12/09 17:21:48;;;;;;;10.98;6.80;;;;;;;5.40;77.58;99179.84;10296329;28;20065;-63
2021/12/09 17:26:50;;;;;;;10.98;5.90;;;;;;;5.28;78.13;99185.13;10292315;28;20056;-64
2021/12/09 17:31:52;;;;;;;12.50;6.07;;;;;;;5.18;79.41;99175.34;10292648;28;20053;-64
2021/12/09 17:37:02;;;;;;;10.30;5.25;;;;;;;5.07;79.90;99184.91;10291982;28;20206;-64
2021/12/09 17:42:04;;;;;;;11.05;7.40;;;;;;;5.10;80.68;99175.94;10293857;28;21232;-64
2021/12/09 17:47:08;;;;;;;14.73;6.22;;;;;;;5.18;80.54;99168.31;10279991;28;20113;-65
2021/12/09 17:52:25;;;;;;;9.90;5.85;;;;;;;5.19;81.07;99164.69;10293030;28;20050;-63
2021/12/09 17:57:28;;;;;;;11.23;6.00;;;;;;;5.21;81.48;99156.66;10292295;28;20065;-65
2021/12/09 18:02:29;;;;;;;11.40;6.35;;;;;;;5.23;80.99;99160.03;10293148;28;20052;-64
2021/12/09 18:07:31;;;;;;;10.60;6.13;;;;;;;5.23;81.39;99146.84;10288552;28;20053;-64
2021/12/09 18:12:33;;;;;;;9.75;6.43;;;;;;;5.24;81.40;99146.72;10276848;28;20062;-65
2021/12/09 18:17:37;;;;;;;9.90;6.97;;;;;;;5.09;81.79;99142.63;10288764;28;20054;-64
2021/12/09 18:22:38;;;;;;;8.38;5.32;;;;;;;5.18;81.55;99134.00;10292636;28;20133;-65
2021/12/09 18:27:42;;;;;;;10.05;6.28;;;;;;;5.29;80.91;99144.56;10279430;28;20069;-66
2021/12/09 18:32:43;;;;;;;9.77;5.88;;;;;;;5.16;80.90;99143.81;10290970;28;20042;-64
2021/12/09 18:37:47;;;;;;;11.15;6.10;;;;;;;5.13;81.14;99129.09;10290627;28;20414;-63
2021/12/09 18:42:49;;;;;;;10.55;5.93;;;;;;;5.14;81.36;99124.63;10287990;28;20396;-65
2021/12/09 18:47:53;;;;;;;7.53;5.03;;;;;;;5.20;80.72;99134.72;10285087;28;20043;-66
2021/12/09 18:52:56;;;;;;;6.10;4.90;;;;;;;4.96;81.31;99127.69;10280047;28;20111;-65
2021/12/09 18:58:03;;;;;;;9.90;4.70;;;;;;;4.86;81.93;99121.44;10289227;28;20050;-65
2021/12/09 19:03:07;;;;;;;8.02;4.68;;;;;;;4.89;82.55;99134.38;10289694;28;20626;-64
2021/12/09 19:08:09;;;;;;;11.73;7.00;;;;;;;4.98;81.83;99124.94;10290120;28;20507;-63
2021/12/09 19:13:12;;;;;;;11.95;5.03;;;;;;;4.87;82.48;99119.66;10288004;28;20065;-65
2021/12/09 19:18:25;;;;;;;8.65;4.45;;;;;;;4.72;82.61;99126.91;10273492;28;20064;-64
2021/12/09 19:23:28;;;;;;;9.50;4.25;;;;;;;4.84;82.83;99117.25;10287328;28;20060;-63
2021/12/09 19:28:32;;;;;;;10.65;4.90;;;;;;;4.84;82.77;99120.72;10274413;28;20046;-64
2021/12/09 19:33:35;;;;;;;8.47;5.30;;;;;;;4.74;82.75;99117.06;10275655;28;20518;-63
2021/12/09 19:38:37;;;;;;;8.43;4.40;;;;;;;4.63;83.51;99114.41;10288083;28;20065;-64
2021/12/09 19:43:40;;;;;;;8.43;5.25;;;;;;;4.67;83.61;99105.28;10287724;28;20430;-64
2021/12/09 19:48:41;;;;;;;11.05;8.38;;;;;;;4.76;83.70;99115.19;10282143;28;20042;-65
2021/12/09 19:53:43;;;;;;;13.40;9.90;;;;;;;4.74;83.74;99117.06;10287739;28;20426;-64
2021/12/09 19:58:45;;;;;;;12.75;10.90;;;;;;;4.75;83.53;99103.78;10279304;28;20450;-65
2021/12/09 20:03:46;;;;;;;8.40;5.55;;;;;;;4.79;83.78;99099.13;10294079;28;20113;-64
2021/12/09 20:08:54;;;;;;;9.00;7.68;;;;;;;4.83;83.69;99103.19;10294165;28;20088;-66
2021/12/09 20:13:56;;;;;;;7.65;5.10;;;;;;;4.85;83.30;99088.13;10278518;28;20359;-65
2021/12/09 20:18:58;;;;;;;5.63;4.93;;;;;;;4.75;84.05;99097.69;10290841;28;20136;-64
2021/12/09 20:24:17;;;;;;;6.00;4.72;;;;;;;4.69;84.35;99092.88;10290224;28;20112;-64
2021/12/09 20:29:19;;;;;;;7.20;4.80;;;;;;;4.73;84.77;99096.97;10290330;28;20050;-65
2021/12/09 20:34:20;;;;;;;6.68;4.95;;;;;;;4.67;85.17;99084.22;10290280;28;20060;-65
2021/12/09 20:39:22;;;;;;;8.32;5.85;;;;;;;4.68;85.38;99085.91;10290985;28;20062;-71
2021/12/09 20:44:23;;;;;;;7.07;5.82;;;;;;;4.67;85.27;99084.22;10288818;28;20070;-65
2021/12/09 20:49:25;;;;;;;6.72;4.80;;;;;;;4.56;85.03;99074.47;10261358;28;20057;-64
2021/12/09 20:54:26;;;;;;;8.02;5.30;;;;;;;4.57;85.46;99069.09;10288450;28;20146;-64
2021/12/09 20:59:29;;;;;;;8.90;5.80;;;;;;;4.48;86.11;99072.41;10283746;28;20042;-63
2021/12/09 21:04:30;;;;;;;6.68;4.80;;;;;;;4.51;86.36;99069.53;10294726;28;20050;-65
2021/12/09 21:09:31;;;;;;;7.32;4.70;;;;;;;4.32;86.37;99058.69;10296792;28;20054;-66
2021/12/09 21:14:35;;;;;;;4.47;4.07;;;;;;;4.45;85.83;99063.91;10295951;28;20058;-68
2021/12/09 21:19:42;;;;;;;3.20;2.90;;;;;;;4.35;84.25;99053.19;10290364;28;20068;-68
2021/12/09 21:24:43;;;;;;;3.60;3.25;;;;;;;4.41;84.24;99052.72;10297076;28;20058;-68
2021/12/09 21:29:46;;;;;;;3.72;3.42;;;;;;;4.54;83.85;99044.75;10295599;28;20057;-64
2021/12/09 21:35:01;;;;;;;3.30;3.00;;;;;;;4.62;83.08;99045.00;10290964;28;20869;-65
2021/12/09 21:40:05;;;;;;;4.60;3.90;;;;;;;4.53;83.94;99029.91;10278472;28;20188;-64
2021/12/09 21:45:07;;;;;;;4.93;3.60;;;;;;;4.32;85.07;99017.34;10291503;28;20065;-64
2021/12/09 21:50:09;;;;;;;6.65;4.80;;;;;;;4.27;85.28;99008.13;10290439;28;20158;-65
2021/12/09 21:55:11;;;;;;;6.18;4.05;;;;;;;4.36;85.62;99002.19;10283761;28;20812;-66
2021/12/09 22:00:16;;;;;;;7.28;4.43;;;;;;;4.47;85.59;98993.47;10294663;28;20057;-64
2021/12/09 22:05:20;;;;;;;4.47;4.07;;;;;;;4.64;85.63;98979.00;10279148;28;20050;-67
2021/12/09 22:10:23;;;;;;;5.97;4.75;;;;;;;4.65;85.35;98970.16;10324681;28;20050;-65
2021/12/09 22:15:25;;;;;;;5.28;4.78;;;;;;;4.54;85.94;98969.16;10299202;28;20042;-66
2021/12/09 22:20:26;;;;;;;5.63;4.72;;;;;;;4.53;85.70;98967.47;10283449;28;20050;-66
2021/12/09 22:25:28;;;;;;;5.05;4.55;;;;;;;4.51;86.07;98964.13;10273327;28;20054;-66
2021/12/09 22:30:29;;;;;;;4.90;3.70;;;;;;;4.32;86.46;98948.03;10293454;28;20057;-67
2021/12/09 22:35:31;;;;;;;5.93;4.18;;;;;;;4.34;87.23;98946.09;10298030;28;20574;-67
2021/12/09 22:40:32;;;;;;;4.60;4.20;;;;;;;4.37;86.69;98935.38;10293338;28;20595;-66
2021/12/09 22:45:33;;;;;;;6.47;4.68;;;;;;;4.39;86.88;98923.72;10304902;28;20046;-66
2021/12/09 22:50:35;;;;;;;5.47;3.58;;;;;;;4.44;86.51;98920.75;10310003;28;20043;-66
2021/12/09 22:55:37;;;;;;;4.20;3.80;;;;;;;4.40;86.69;98911.41;10311291;28;20097;-67
2021/12/09 23:00:46;;;;;;;5.97;4.00;;;;;;;4.52;85.90;98902.56;10308948;28;20077;-65
2021/12/09 23:05:52;;;;;;;3.70;3.40;;;;;;;4.57;85.83;98889.88;10308615;28;20053;-66
2021/12/09 23:10:55;;;;;;;3.88;3.40;;;;;;;4.68;85.49;98872.38;10314045;28;20133;-66
2021/12/09 23:15:56;;;;;;;3.58;3.22;;;;;;;4.68;84.74;98872.38;10310738;28;20129;-66
2021/12/09 23:20:58;;;;;;;3.67;3.30;;;;;;;4.65;85.30;98862.06;10292362;28;20046;-66
2021/12/09 23:26:00;;;;;;;5.10;3.67;;;;;;;4.55;84.97;98838.25;10294724;28;20050;-65
2021/12/09 23:31:05;;;;;;;4.05;3.70;;;;;;;4.55;85.61;98841.72;10295193;28;20145;-65
2021/12/09 23:36:09;;;;;;;4.47;3.80;;;;;;;4.59;85.05;98824.72;10312351;28;20078;-66
2021/12/09 23:41:11;;;;;;;7.00;3.67;;;;;;;4.65;84.85;98818.09;10308908;28;20058;-66
2021/12/09 23:46:12;;;;;;;5.50;3.70;;;;;;;4.59;84.90;98803.63;10307507;28;20420;-66
2021/12/09 23:51:15;;;;;;;4.47;3.83;;;;;;;4.55;84.80;98801.34;10306701;28;20050;-66
2021/12/09 23:56:16;;;;;;;5.85;3.88;;;;;;;4.56;85.21;98793.31;10308114;28;20046;-66
